Time;durP1;ratioP1;P1;durP2;ratioP2;P2;SDS_P1;SDS_P2;PMS_P1;PMS_P2;Temp;Humidity;BMP_temperature;BMP_pressure;BME280_temperature;BME280_humidity;BME280_pressure;Samples;Min_cycle;Max_cycle;Signal;HPM_P1;HPM_P2
2022/01/19 00:03:25;;;;;;;17.73;9.63;;;;;;;;;;10374842;28;20025;-61
2022/01/19 00:08:28;;;;;;;15.75;9.07;;;;;;;;;;10373966;28;20978;-61
2022/01/19 00:13:28;;;;;;;14.68;9.57;;;;;;;;;;10372993;28;20113;-61
2022/01/19 00:18:29;;;;;;;20.05;10.13;;;;;;;;;;10374171;28;20107;-62
2022/01/19 00:23:29;;;;;;;15.65;9.35;;;;;;;;;;10373951;28;20026;-61
2022/01/19 00:28:29;;;;;;;16.43;9.40;;;;;;;;;;10373467;28;20029;-62
2022/01/19 00:33:30;;;;;;;13.93;8.67;;;;;;;;;;10372883;28;20529;-61
2022/01/19 00:38:30;;;;;;;15.45;9.07;;;;;;;;;;10373629;28;20443;-62
2022/01/19 00:43:31;;;;;;;14.00;8.83;;;;;;;;;;10373474;28;20082;-61
2022/01/19 00:48:31;;;;;;;14.45;9.63;;;;;;;;;;10371461;28;20473;-61
2022/01/19 00:53:31;;;;;;;16.17;10.83;;;;;;;;;;10372901;28;20048;-61
2022/01/19 00:58:32;;;;;;;17.57;10.63;;;;;;;;;;10372748;28;20563;-61
2022/01/19 01:03:32;;;;;;;16.77;11.27;;;;;;;;;;10372178;28;20534;-61
2022/01/19 01:08:32;;;;;;;21.97;11.80;;;;;;;;;;10372241;28;20034;-60
2022/01/19 01:18:51;;;;;;;19.70;11.43;;;;;;;;;;10371667;28;20042;-61
2022/01/19 01:23:52;;;;;;;19.77;11.50;;;;;;;;;;10371785;28;20500;-60
2022/01/19 01:28:53;;;;;;;18.85;11.15;;;;;;;;;;10371584;28;20460;-61
2022/01/19 01:33:53;;;;;;;18.27;11.75;;;;;;;;;;10371890;28;20024;-61
2022/01/19 01:38:53;;;;;;;19.42;10.93;;;;;;;;;;10371241;28;20026;-61
2022/01/19 01:43:54;;;;;;;20.23;11.18;;;;;;;;;;10370985;28;20462;-61
2022/01/19 01:48:54;;;;;;;17.70;11.70;;;;;;;;;;10369627;28;20052;-60
2022/01/19 01:53:54;;;;;;;18.03;11.07;;;;;;;;;;10370376;28;20443;-61
2022/01/19 01:58:55;;;;;;;18.90;11.97;;;;;;;;;;10370247;28;20436;-61
2022/01/19 02:03:55;;;;;;;17.60;11.40;;;;;;;;;;10368481;28;20087;-61
2022/01/19 02:24:44;;;;;;;;;;;;;;;;;;10369815;28;20029;-61
2022/01/19 02:40:15;;;;;;;17.23;11.40;;;;;;;;;;10369157;28;20022;-60
2022/01/19 02:50:16;;;;;;;21.23;12.00;;;;;;;;;;10367597;28;20026;-60
2022/01/19 02:55:16;;;;;;;17.47;10.87;;;;;;;;;;10368555;28;20432;-60
2022/01/19 03:10:55;;;;;;;;;;;;;;;;;;10367795;28;20489;-59
2022/01/19 03:15:55;;;;;;;15.95;10.77;;;;;;;;;;10367964;28;19921;-61
2022/01/19 03:20:55;;;;;;;15.30;10.80;;;;;;;;;;10367958;28;20022;-61
2022/01/19 03:25:57;;;;;;;13.77;10.20;;;;;;;;;;10367777;28;20471;-61
2022/01/19 03:30:58;;;;;;;15.45;10.77;;;;;;;;;;10367876;28;20026;-61
2022/01/19 03:35:58;;;;;;;15.57;10.70;;;;;;;;;;10367787;28;20037;-61
2022/01/19 03:40:59;;;;;;;17.83;10.50;;;;;;;;;;10368152;28;20030;-61
2022/01/19 03:46:02;;;;;;;15.90;10.70;;;;;;;;;;10367479;28;20065;-61
2022/01/19 03:51:03;;;;;;;17.45;9.98;;;;;;;;;;10367923;28;20442;-60
2022/01/19 03:56:04;;;;;;;13.80;10.68;;;;;;;;;;10366118;28;20126;-61
2022/01/19 04:01:06;;;;;;;12.85;9.57;;;;;;;;;;10367095;28;20034;-61
2022/01/19 04:06:17;;;;;;;16.05;10.18;;;;;;;;;;10366946;28;20026;-60
2022/01/19 04:11:20;;;;;;;13.05;10.15;;;;;;;;;;10366954;28;20028;-60
2022/01/19 04:16:20;;;;;;;13.57;10.02;;;;;;;;;;10366764;28;20490;-61
2022/01/19 04:21:21;;;;;;;13.80;9.57;;;;;;;;;;10369457;28;20022;-60
2022/01/19 04:26:21;;;;;;;13.30;9.60;;;;;;;;;;10374026;28;20467;-60
2022/01/19 04:31:22;;;;;;;14.37;9.50;;;;;;;;;;10374026;28;20636;-60
2022/01/19 04:36:36;;;;;;;14.07;10.05;;;;;;;;;;10374214;28;20465;-60
2022/01/19 05:03:25;;;;;;;;;;;;;;;;;;10373044;28;20018;-60
2022/01/19 05:13:36;;;;;;;12.23;8.88;;;;;;;;;;10371071;28;20033;-60
2022/01/19 05:18:36;;;;;;;14.45;9.38;;;;;;;;;;10371839;28;20074;-62
2022/01/19 05:23:37;;;;;;;13.37;9.43;;;;;;;;;;10371822;28;20056;-60
2022/01/19 05:28:38;;;;;;;11.70;8.77;;;;;;;;;;10371561;28;21041;-60
2022/01/19 05:33:38;;;;;;;13.30;9.35;;;;;;;;;;10371531;28;20037;-60
2022/01/19 05:38:39;;;;;;;11.32;9.02;;;;;;;;;;10371244;28;20482;-60
2022/01/19 05:43:39;;;;;;;13.23;9.20;;;;;;;;;;10371136;28;20053;-61
2022/01/19 05:48:40;;;;;;;14.77;8.97;;;;;;;;;;10367731;28;20475;-60
2022/01/19 05:53:40;;;;;;;18.67;9.73;;;;;;;;;;10370560;28;20022;-61
2022/01/19 05:58:41;;;;;;;11.48;8.50;;;;;;;;;;10370373;28;20038;-61
2022/01/19 06:03:41;;;;;;;12.97;9.37;;;;;;;;;;10368847;28;20044;-61
2022/01/19 06:08:44;;;;;;;19.60;8.85;;;;;;;;;;10369968;28;20452;-60
2022/01/19 06:13:44;;;;;;;11.45;8.55;;;;;;;;;;10369146;28;20060;-61
2022/01/19 06:18:44;;;;;;;13.07;9.10;;;;;;;;;;10368127;28;20076;-60
2022/01/19 06:23:45;;;;;;;13.53;8.90;;;;;;;;;;10369200;28;20535;-60
2022/01/19 06:28:45;;;;;;;14.93;8.63;;;;;;;;;;10369493;28;20462;-61
2022/01/19 06:33:45;;;;;;;10.70;7.23;;;;;;;;;;10369198;28;20028;-61
2022/01/19 06:38:46;;;;;;;14.67;8.13;;;;;;;;;;10369638;28;20562;-60
2022/01/19 06:43:46;;;;;;;19.07;8.20;;;;;;;;;;10368075;28;20433;-62
2022/01/19 06:48:47;;;;;;;15.23;8.20;;;;;;;;;;10367519;28;20462;-63
2022/01/19 06:53:47;;;;;;;23.48;7.68;;;;;;;;;;10368479;28;20534;-62
2022/01/19 06:58:48;;;;;;;17.92;8.38;;;;;;;;;;10368558;28;20041;-61
2022/01/19 07:03:48;;;;;;;17.08;7.90;;;;;;;;;;10368453;28;20022;-60
2022/01/19 07:08:49;;;;;;;16.67;7.95;;;;;;;;;;10368946;28;20037;-60
2022/01/19 07:13:49;;;;;;;17.97;8.30;;;;;;;;;;10368237;28;20033;-60
2022/01/19 07:18:50;;;;;;;20.17;8.63;;;;;;;;;;10366632;28;21017;-60
2022/01/19 07:23:50;;;;;;;19.70;8.70;;;;;;;;;;10368044;28;20022;-60
2022/01/19 07:28:50;;;;;;;14.60;8.83;;;;;;;;;;10368068;28;20033;-60
2022/01/19 07:33:51;;;;;;;15.35;8.48;;;;;;;;;;10367953;28;20608;-60
2022/01/19 07:38:51;;;;;;;18.70;8.53;;;;;;;;;;10367746;28;20434;-60
2022/01/19 07:43:52;;;;;;;17.70;8.90;;;;;;;;;;10367508;28;20447;-62
2022/01/19 07:48:53;;;;;;;16.13;8.27;;;;;;;;;;10367475;28;20447;-60
2022/01/19 07:53:53;;;;;;;14.13;8.05;;;;;;;;;;10366579;28;20029;-64
2022/01/19 07:58:53;;;;;;;15.33;8.60;;;;;;;;;;10375391;28;20030;-60
2022/01/19 08:03:54;;;;;;;17.30;8.20;;;;;;;;;;10375146;28;20475;-60
2022/01/19 08:08:55;;;;;;;18.47;8.50;;;;;;;;;;10374884;28;20444;-60
2022/01/19 08:13:55;;;;;;;12.98;8.25;;;;;;;;;;10373615;28;20121;-61
2022/01/19 08:18:55;;;;;;;15.47;8.20;;;;;;;;;;10374177;28;20046;-60
2022/01/19 08:23:56;;;;;;;13.52;7.65;;;;;;;;;;10373936;28;21025;-65
2022/01/19 08:28:56;;;;;;;12.30;7.57;;;;;;;;;;10372962;28;20029;-66
2022/01/19 08:33:57;;;;;;;12.50;8.20;;;;;;;;;;10373311;28;20871;-64
2022/01/19 08:38:57;;;;;;;14.38;8.55;;;;;;;;;;10373367;28;20439;-60
2022/01/19 08:43:58;;;;;;;11.73;7.88;;;;;;;;;;10373526;28;20022;-61
2022/01/19 08:48:59;;;;;;;13.70;8.50;;;;;;;;;;10373068;28;20152;-60
2022/01/19 08:53:59;;;;;;;11.40;7.83;;;;;;;;;;10372799;28;20037;-61
2022/01/19 08:58:59;;;;;;;14.57;8.02;;;;;;;;;;10370823;28;20527;-61
2022/01/19 09:04:00;;;;;;;13.53;8.40;;;;;;;;;;10369342;28;20108;-60
2022/01/19 09:09:00;;;;;;;12.23;7.80;;;;;;;;;;10369667;28;20448;-60
2022/01/19 09:14:02;;;;;;;10.67;7.90;;;;;;;;;;10370829;28;20061;-60
2022/01/19 09:19:04;;;;;;;13.07;8.00;;;;;;;;;;10369948;28;20493;-60
2022/01/19 09:24:05;;;;;;;12.82;8.43;;;;;;;;;;10371358;28;20025;-60
2022/01/19 09:29:06;;;;;;;12.65;8.20;;;;;;;;;;10371035;28;20042;-60
2022/01/19 09:34:11;;;;;;;10.48;7.68;;;;;;;;;;10371605;28;20041;-60
2022/01/19 09:39:17;;;;;;;11.45;7.45;;;;;;;;;;10371252;28;20026;-60
2022/01/19 09:44:24;;;;;;;10.85;7.82;;;;;;;;;;10370431;28;20026;-60
2022/01/19 09:49:25;;;;;;;10.93;8.10;;;;;;;;;;10369900;28;20040;-60
2022/01/19 09:54:27;;;;;;;11.52;7.88;;;;;;;;;;10370979;28;20196;-61
2022/01/19 09:59:28;;;;;;;13.63;8.18;;;;;;;;;;10369235;28;20022;-66
2022/01/19 10:04:31;;;;;;;13.95;8.07;;;;;;;;;;10368649;28;20053;-66
2022/01/19 10:09:31;;;;;;;12.30;8.55;;;;;;;;;;10366007;28;20026;-62
2022/01/19 10:20:20;;;;;;;12.80;7.97;;;;;;;;;;10366422;28;20451;-65
2022/01/19 10:25:20;;;;;;;10.15;7.78;;;;;;;;;;10368797;28;20030;-63
2022/01/19 10:30:23;;;;;;;12.20;7.32;;;;;;;;;;10369369;28;20503;-61
2022/01/19 10:35:33;;;;;;;11.15;7.13;;;;;;;;;;10369592;28;20029;-64
2022/01/19 10:40:35;;;;;;;12.45;7.43;;;;;;;;;;10369211;28;20208;-61
2022/01/19 10:45:36;;;;;;;11.98;8.13;;;;;;;;;;10368396;28;20580;-63
2022/01/19 10:50:36;;;;;;;14.52;7.38;;;;;;;;;;10367997;28;20057;-61
2022/01/19 10:55:41;;;;;;;12.23;7.95;;;;;;;;;;10365890;28;20060;-61
2022/01/19 11:00:49;;;;;;;12.50;7.68;;;;;;;;;;10367359;28;20022;-61
2022/01/19 11:05:51;;;;;;;11.90;7.27;;;;;;;;;;10367855;28;20026;-61
2022/01/19 11:10:54;;;;;;;10.07;7.22;;;;;;;;;;10368071;28;20041;-61
2022/01/19 11:16:02;;;;;;;8.43;6.13;;;;;;;;;;10367270;28;20568;-61
2022/01/19 11:21:07;;;;;;;9.10;6.90;;;;;;;;;;10367758;28;20482;-60
2022/01/19 11:26:20;;;;;;;10.45;7.03;;;;;;;;;;10367058;28;20045;-61
2022/01/19 11:31:24;;;;;;;14.27;8.30;;;;;;;;;;10370799;28;20486;-61
2022/01/19 11:36:27;;;;;;;12.25;7.10;;;;;;;;;;10375303;28;20080;-62
2022/01/19 11:41:39;;;;;;;11.70;7.57;;;;;;;;;;10375585;28;20413;-60
2022/01/19 11:46:52;;;;;;;10.18;6.70;;;;;;;;;;10375911;28;20162;-61
2022/01/19 11:51:54;;;;;;;11.35;6.47;;;;;;;;;;10374162;28;20105;-61
2022/01/19 11:57:02;;;;;;;10.63;6.43;;;;;;;;;;10374823;28;20480;-61
2022/01/19 12:02:21;;;;;;;8.00;6.47;;;;;;;;;;10372677;28;20496;-61
2022/01/19 12:07:38;;;;;;;8.27;6.40;;;;;;;;;;10373638;28;20126;-62
2022/01/19 12:12:48;;;;;;;11.13;6.65;;;;;;;;;;10373542;28;20104;-61
2022/01/19 12:17:56;;;;;;;11.25;6.45;;;;;;;;;;10372979;28;20385;-60
2022/01/19 12:23:29;;;;;;;10.27;6.43;;;;;;;;;;10374194;28;20070;-60
2022/01/19 12:28:39;;;;;;;9.50;6.43;;;;;;;;;;10373410;28;20041;-60
2022/01/19 12:34:02;;;;;;;9.23;6.50;;;;;;;;;;10373003;28;20053;-61
2022/01/19 12:39:25;;;;;;;8.00;6.28;;;;;;;;;;10372951;28;20026;-62
2022/01/19 12:44:35;;;;;;;8.20;6.35;;;;;;;;;;10372132;28;20632;-61
2022/01/19 12:49:35;;;;;;;9.73;6.65;;;;;;;;;;10373452;28;20025;-61
2022/01/19 12:54:35;;;;;;;8.80;6.07;;;;;;;;;;10372570;28;20060;-62
2022/01/19 12:59:38;;;;;;;9.23;6.37;;;;;;;;;;10372646;28;20518;-61
2022/01/19 13:04:40;;;;;;;8.35;6.00;;;;;;;;;;10371363;28;20101;-62
2022/01/19 13:10:05;;;;;;;8.88;6.35;;;;;;;;;;10372115;28;20478;-62
2022/01/19 13:15:06;;;;;;;8.93;6.25;;;;;;;;;;10371237;28;20050;-62
2022/01/19 13:20:19;;;;;;;8.73;5.93;;;;;;;;;;10372052;28;20030;-62
2022/01/19 13:25:25;;;;;;;7.07;6.10;;;;;;;;;;10370680;28;20030;-62
2022/01/19 13:30:32;;;;;;;9.18;6.30;;;;;;;;;;10371201;28;20032;-61
2022/01/19 13:35:33;;;;;;;9.52;6.60;;;;;;;;;;10371970;28;20034;-62
2022/01/19 13:40:33;;;;;;;8.25;6.25;;;;;;;;;;10370958;28;20028;-62
2022/01/19 13:50:51;;;;;;;7.88;5.88;;;;;;;;;;10370314;28;20022;-62
2022/01/19 13:55:51;;;;;;;10.95;6.05;;;;;;;;;;10369913;28;20375;-61
2022/01/19 14:00:55;;;;;;;7.72;6.00;;;;;;;;;;10366968;28;20026;-62
2022/01/19 14:05:55;;;;;;;7.88;5.63;;;;;;;;;;10369424;28;20030;-62
2022/01/19 14:10:56;;;;;;;7.55;6.25;;;;;;;;;;10369284;28;20069;-59
2022/01/19 14:16:37;;;;;;;8.20;6.13;;;;;;;;;;10366901;28;20045;-60
2022/01/19 14:21:59;;;;;;;10.20;6.45;;;;;;;;;;10369323;28;20041;-60
2022/01/19 14:26:59;;;;;;;8.75;6.13;;;;;;;;;;10367435;28;20034;-61
2022/01/19 14:32:00;;;;;;;9.82;6.30;;;;;;;;;;10367220;28;20026;-62
2022/01/19 14:37:18;;;;;;;8.10;6.00;;;;;;;;;;10368027;28;20117;-62
2022/01/19 14:42:23;;;;;;;11.48;6.65;;;;;;;;;;10367619;28;20036;-62
2022/01/19 14:47:37;;;;;;;8.10;6.00;;;;;;;;;;10369230;28;20030;-62
2022/01/19 14:52:38;;;;;;;8.65;6.07;;;;;;;;;;10369295;28;20026;-63
2022/01/19 14:57:38;;;;;;;8.27;6.53;;;;;;;;;;10368156;28;20030;-62
2022/01/19 15:02:38;;;;;;;8.63;6.47;;;;;;;;;;10367127;28;20436;-62
2022/01/19 15:07:40;;;;;;;10.38;6.05;;;;;;;;;;10366224;28;20034;-62
2022/01/19 15:12:42;;;;;;;9.68;6.28;;;;;;;;;;10367305;28;20030;-62
2022/01/19 15:17:43;;;;;;;9.43;6.72;;;;;;;;;;10366851;28;20440;-61
2022/01/19 15:22:44;;;;;;;12.45;6.50;;;;;;;;;;10366401;28;20080;-62
2022/01/19 15:27:46;;;;;;;8.40;6.00;;;;;;;;;;10367197;28;20025;-62
2022/01/19 15:32:46;;;;;;;7.53;5.75;;;;;;;;;;10367114;28;20037;-62
2022/01/19 15:37:47;;;;;;;10.45;5.80;;;;;;;;;;10366881;28;20029;-62
2022/01/19 15:42:49;;;;;;;7.88;6.00;;;;;;;;;;10367123;28;20039;-62
2022/01/19 15:47:49;;;;;;;9.18;5.85;;;;;;;;;;10366645;28;20500;-62
2022/01/19 15:52:50;;;;;;;7.47;5.70;;;;;;;;;;10366058;28;20029;-61
2022/01/19 15:57:50;;;;;;;6.77;5.67;;;;;;;;;;10366317;28;20033;-63
2022/01/19 16:02:50;;;;;;;8.50;5.90;;;;;;;;;;10366463;28;20106;-62
2022/01/19 16:07:51;;;;;;;7.60;6.07;;;;;;;;;;10364111;28;21016;-62
2022/01/19 16:12:51;;;;;;;10.32;6.25;;;;;;;;;;10365653;28;20546;-62
2022/01/19 16:17:52;;;;;;;11.30;6.00;;;;;;;;;;10371757;28;20456;-67
2022/01/19 16:28:11;;;;;;;;;;;;;;;;;;10374143;28;20037;-62
2022/01/19 16:33:11;;;;;;;9.33;6.70;;;;;;;;;;10374245;28;19913;-62
2022/01/19 16:38:13;;;;;;;11.80;7.50;;;;;;;;;;10374640;28;20033;-62
2022/01/19 16:43:14;;;;;;;14.52;7.82;;;;;;;;;;10372744;28;20457;-61
2022/01/19 16:48:20;;;;;;;10.00;7.35;;;;;;;;;;10373042;28;20029;-62
2022/01/19 16:53:23;;;;;;;10.77;7.70;;;;;;;;;;10373018;28;20030;-62
2022/01/19 16:58:26;;;;;;;10.52;7.45;;;;;;;;;;10369787;28;20357;-62
2022/01/19 17:03:28;;;;;;;12.18;7.22;;;;;;;;;;10370402;28;20030;-62
2022/01/19 17:08:29;;;;;;;13.05;7.75;;;;;;;;;;10371893;28;20026;-62
2022/01/19 17:18:35;;;;;;;10.95;7.18;;;;;;;;;;10369842;28;20467;-62
2022/01/19 17:23:36;;;;;;;11.43;7.10;;;;;;;;;;10369382;28;20030;-62
2022/01/19 17:28:37;;;;;;;10.10;7.32;;;;;;;;;;10370905;28;20801;-61
2022/01/19 17:33:38;;;;;;;12.18;7.32;;;;;;;;;;10371009;28;20021;-61
2022/01/19 17:38:41;;;;;;;11.23;7.28;;;;;;;;;;10371382;28;20085;-61
2022/01/19 17:43:42;;;;;;;10.25;7.60;;;;;;;;;;10371033;28;20117;-61
2022/01/19 17:49:01;;;;;;;9.60;7.43;;;;;;;;;;10370623;28;20041;-61
2022/01/19 17:54:02;;;;;;;9.68;6.80;;;;;;;;;;10370295;28;20022;-61
2022/01/19 17:59:02;;;;;;;10.15;7.13;;;;;;;;;;10370502;28;20083;-61
2022/01/19 18:04:03;;;;;;;12.68;7.63;;;;;;;;;;10370395;28;20075;-61
2022/01/19 18:09:03;;;;;;;10.05;6.75;;;;;;;;;;10370041;28;20057;-61
2022/01/19 18:14:05;;;;;;;10.10;7.40;;;;;;;;;;10367987;28;20095;-61
2022/01/19 18:19:05;;;;;;;11.00;7.25;;;;;;;;;;10367371;28;20042;-61
2022/01/19 18:24:06;;;;;;;13.60;8.40;;;;;;;;;;10368986;28;20022;-62
2022/01/19 18:29:06;;;;;;;13.98;8.50;;;;;;;;;;10362256;28;20471;-62
2022/01/19 18:34:07;;;;;;;12.02;8.05;;;;;;;;;;10369115;28;20022;-61
2022/01/19 18:39:07;;;;;;;15.13;8.05;;;;;;;;;;10368497;28;20029;-61
2022/01/19 18:44:07;;;;;;;16.90;9.50;;;;;;;;;;10368931;28;20026;-61
2022/01/19 18:49:08;;;;;;;17.17;9.37;;;;;;;;;;10367424;28;20488;-62
2022/01/19 18:54:08;;;;;;;14.30;8.75;;;;;;;;;;10368528;28;20481;-62
2022/01/19 18:59:09;;;;;;;13.55;8.60;;;;;;;;;;10368498;28;20076;-61
2022/01/19 19:04:09;;;;;;;14.00;9.67;;;;;;;;;;10366461;28;20030;-61
2022/01/19 19:09:19;;;;;;;12.77;8.93;;;;;;;;;;10367323;28;20461;-61
2022/01/19 19:14:20;;;;;;;15.90;9.48;;;;;;;;;;10367205;28;20516;-60
2022/01/19 19:19:24;;;;;;;14.07;8.60;;;;;;;;;;10364643;28;20112;-61
2022/01/19 19:24:24;;;;;;;14.00;8.68;;;;;;;;;;10367681;28;20482;-61
2022/01/19 19:29:25;;;;;;;16.45;9.55;;;;;;;;;;10367776;28;20030;-61
2022/01/19 19:34:25;;;;;;;16.02;9.45;;;;;;;;;;10367022;28;20030;-61
2022/01/19 19:39:26;;;;;;;13.05;8.27;;;;;;;;;;10366688;28;20033;-61
2022/01/19 19:44:28;;;;;;;15.65;9.57;;;;;;;;;;10368037;28;20045;-59
2022/01/19 19:49:28;;;;;;;12.77;8.70;;;;;;;;;;10363223;28;20490;-64
2022/01/19 19:54:29;;;;;;;15.73;9.57;;;;;;;;;;10375502;28;20026;-60
2022/01/19 19:59:29;;;;;;;20.60;9.43;;;;;;;;;;10375348;28;20951;-60
2022/01/19 20:04:29;;;;;;;14.57;9.40;;;;;;;;;;10374847;28;20557;-60
2022/01/19 20:09:30;;;;;;;16.63;9.53;;;;;;;;;;10375080;28;20605;-62
2022/01/19 20:14:31;;;;;;;12.73;9.02;;;;;;;;;;10371519;28;20030;-62
2022/01/19 20:19:32;;;;;;;30.90;9.70;;;;;;;;;;10373529;28;20113;-62
2022/01/19 20:26:17;;;;;;;23.95;10.15;;;;;;;;;;10534093;27;20611;-63
2022/01/19 20:31:17;;;;;;;26.83;9.13;;;;;;;;;;10531814;28;20047;-56
2022/01/19 20:36:18;;;;;;;22.57;8.83;;;;;;;;;;10526030;28;20089;-63
2022/01/19 20:41:19;;;;;;;22.87;10.10;;;;;;;;;;10526125;28;20473;-61
2022/01/19 20:46:19;;;;;;;17.77;9.15;;;;;;;;;;10526266;28;20052;-60
2022/01/19 20:51:20;;;;;;;24.33;9.50;;;;;;;;;;10525198;28;20031;-61
2022/01/19 20:56:20;;;;;;;18.03;9.77;;;;;;;;;;10525776;28;20086;-59
2022/01/19 21:01:24;;;;;;;14.77;9.23;;;;;;;;;;10521180;28;20445;-61
2022/01/19 21:06:24;;;;;;;17.73;10.43;;;;;;;;;;10526425;28;20030;-62
2022/01/19 21:11:25;;;;;;;18.67;10.25;;;;;;;;;;10524770;28;20036;-60
2022/01/19 21:16:25;;;;;;;19.50;9.27;;;;;;;;;;10525857;28;20020;-62
2022/01/19 21:21:26;;;;;;;16.67;8.82;;;;;;;;;;10525374;28;20441;-64
2022/01/19 21:26:27;;;;;;;16.83;9.68;;;;;;;;;;10525251;28;20024;-63
2022/01/19 21:31:28;;;;;;;19.10;10.20;;;;;;;;;;10525074;28;20036;-58
2022/01/19 21:36:29;;;;;;;16.00;9.75;;;;;;;;;;10503222;28;20429;-56
2022/01/19 21:41:29;;;;;;;18.27;9.50;;;;;;;;;;10496454;28;20032;-60
2022/01/19 21:46:30;;;;;;;17.90;9.35;;;;;;;;;;10497011;28;20591;-61
2022/01/19 21:51:30;;;;;;;21.10;9.90;;;;;;;;;;10496502;28;20033;-59
2022/01/19 21:56:31;;;;;;;15.27;8.90;;;;;;;;;;10495881;28;20028;-60
2022/01/19 22:01:32;;;;;;;13.43;8.43;;;;;;;;;;10492944;28;20778;-61
2022/01/19 22:06:32;;;;;;;14.55;8.23;;;;;;;;;;10492802;28;20029;-62
2022/01/19 22:11:32;;;;;;;19.10;9.27;;;;;;;;;;10495223;28;20046;-63
2022/01/19 22:16:33;;;;;;;12.07;7.70;;;;;;;;;;10494976;28;20441;-61
2022/01/19 22:21:33;;;;;;;19.38;8.68;;;;;;;;;;10494965;28;20987;-64
2022/01/19 22:26:34;;;;;;;14.93;8.77;;;;;;;;;;10495126;28;20052;-65
2022/01/19 22:31:35;;;;;;;35.85;8.25;;;;;;;;;;10494010;28;20506;-65
2022/01/19 22:36:35;;;;;;;19.75;8.25;;;;;;;;;;10493131;28;20024;-63
2022/01/19 22:41:36;;;;;;;13.57;8.53;;;;;;;;;;10494778;28;20017;-63
2022/01/19 22:46:36;;;;;;;15.13;8.10;;;;;;;;;;10493890;28;20977;-64
2022/01/19 22:51:37;;;;;;;14.40;7.20;;;;;;;;;;10492930;28;20028;-63
2022/01/19 22:56:37;;;;;;;19.80;7.75;;;;;;;;;;10493001;28;20436;-63
2022/01/19 23:01:38;;;;;;;15.97;7.57;;;;;;;;;;10493299;28;20081;-63
2022/01/19 23:06:39;;;;;;;15.32;7.60;;;;;;;;;;10489722;28;20852;-63
2022/01/19 23:11:39;;;;;;;17.50;7.35;;;;;;;;;;10489155;28;20024;-64
2022/01/19 23:16:44;;;;;;;17.83;7.85;;;;;;;;;;10491724;28;20120;-64
2022/01/19 23:21:47;;;;;;;13.80;7.60;;;;;;;;;;10491054;28;20392;-64
2022/01/19 23:26:55;;;;;;;14.27;7.35;;;;;;;;;;10491969;28;20020;-63
2022/01/19 23:31:56;;;;;;;10.68;6.75;;;;;;;;;;10492393;28;20065;-62
2022/01/19 23:52:47;;;;;;;9.85;7.20;;;;;;;;;;10491394;28;20020;-63
2022/01/19 23:57:55;;;;;;;12.80;7.82;;;;;;;;;;10488991;28;20070;-63
